sensor_id;sensor_type;location;lat;lon;timestamp;P1;durP1;ratioP1;P2;durP2;ratioP2
70683;SDS011;58263;48.146;11.440;2023-06-19T00:00:36;10.03;;;7.63;;
70683;SDS011;58263;48.146;11.440;2023-06-19T00:03:02;11.60;;;7.13;;
70683;SDS011;58263;48.146;11.440;2023-06-19T00:05:28;10.88;;;7.97;;
70683;SDS011;58263;48.146;11.440;2023-06-19T00:07:53;10.47;;;7.40;;
70683;SDS011;58263;48.146;11.440;2023-06-19T00:10:18;9.18;;;7.38;;
70683;SDS011;58263;48.146;11.440;2023-06-19T00:12:44;10.98;;;7.70;;
70683;SDS011;58263;48.146;11.440;2023-06-19T00:15:09;9.25;;;7.18;;
70683;SDS011;58263;48.146;11.440;2023-06-19T00:17:35;9.65;;;7.35;;
70683;SDS011;58263;48.146;11.440;2023-06-19T00:20:02;8.68;;;6.63;;
70683;SDS011;58263;48.146;11.440;2023-06-19T00:22:28;9.57;;;7.18;;
70683;SDS011;58263;48.146;11.440;2023-06-19T00:24:53;9.83;;;7.13;;
70683;SDS011;58263;48.146;11.440;2023-06-19T00:27:19;8.17;;;6.90;;
70683;SDS011;58263;48.146;11.440;2023-06-19T00:29:44;8.60;;;6.73;;
70683;SDS011;58263;48.146;11.440;2023-06-19T00:32:09;10.93;;;6.97;;
70683;SDS011;58263;48.146;11.440;2023-06-19T00:34:35;8.90;;;6.77;;
70683;SDS011;58263;48.146;11.440;2023-06-19T00:37:02;8.15;;;6.65;;
70683;SDS011;58263;48.146;11.440;2023-06-19T00:39:27;9.95;;;7.05;;
70683;SDS011;58263;48.146;11.440;2023-06-19T00:41:53;11.05;;;7.35;;
70683;SDS011;58263;48.146;11.440;2023-06-19T00:44:20;11.23;;;7.10;;
70683;SDS011;58263;48.146;11.440;2023-06-19T00:46:45;8.95;;;6.55;;
70683;SDS011;58263;48.146;11.440;2023-06-19T00:49:11;9.68;;;6.78;;
70683;SDS011;58263;48.146;11.440;2023-06-19T00:51:37;8.63;;;6.70;;
70683;SDS011;58263;48.146;11.440;2023-06-19T00:54:02;10.32;;;6.65;;
70683;SDS011;58263;48.146;11.440;2023-06-19T00:56:29;8.35;;;6.78;;
70683;SDS011;58263;48.146;11.440;2023-06-19T00:58:54;9.18;;;7.45;;
70683;SDS011;58263;48.146;11.440;2023-06-19T01:01:20;8.63;;;6.68;;
70683;SDS011;58263;48.146;11.440;2023-06-19T01:03:46;11.05;;;7.15;;
70683;SDS011;58263;48.146;11.440;2023-06-19T01:06:15;8.82;;;7.18;;
70683;SDS011;58263;48.146;11.440;2023-06-19T01:11:24;11.23;;;6.88;;
70683;SDS011;58263;48.146;11.440;2023-06-19T01:13:56;9.25;;;6.78;;
70683;SDS011;58263;48.146;11.440;2023-06-19T01:16:25;10.18;;;7.05;;
70683;SDS011;58263;48.146;11.440;2023-06-19T01:18:53;8.57;;;6.55;;
70683;SDS011;58263;48.146;11.440;2023-06-19T01:21:19;8.07;;;6.72;;
70683;SDS011;58263;48.146;11.440;2023-06-19T01:23:44;10.10;;;7.30;;
70683;SDS011;58263;48.146;11.440;2023-06-19T01:26:10;10.35;;;7.35;;
70683;SDS011;58263;48.146;11.440;2023-06-19T01:28:37;9.52;;;6.95;;
70683;SDS011;58263;48.146;11.440;2023-06-19T01:31:10;9.88;;;7.28;;
70683;SDS011;58263;48.146;11.440;2023-06-19T01:33:37;9.63;;;7.03;;
70683;SDS011;58263;48.146;11.440;2023-06-19T01:36:05;8.98;;;6.45;;
70683;SDS011;58263;48.146;11.440;2023-06-19T01:38:32;9.88;;;7.50;;
70683;SDS011;58263;48.146;11.440;2023-06-19T01:41:00;8.07;;;6.70;;
70683;SDS011;58263;48.146;11.440;2023-06-19T01:43:26;9.55;;;6.70;;
70683;SDS011;58263;48.146;11.440;2023-06-19T01:45:52;9.80;;;6.65;;
70683;SDS011;58263;48.146;11.440;2023-06-19T01:48:17;10.00;;;7.35;;
70683;SDS011;58263;48.146;11.440;2023-06-19T01:50:46;9.57;;;6.30;;
70683;SDS011;58263;48.146;11.440;2023-06-19T01:53:13;8.90;;;7.00;;
70683;SDS011;58263;48.146;11.440;2023-06-19T01:55:38;8.88;;;6.47;;
70683;SDS011;58263;48.146;11.440;2023-06-19T01:58:04;10.52;;;7.00;;
70683;SDS011;58263;48.146;11.440;2023-06-19T02:00:29;9.70;;;6.93;;
70683;SDS011;58263;48.146;11.440;2023-06-19T02:02:55;10.43;;;7.10;;
70683;SDS011;58263;48.146;11.440;2023-06-19T02:05:21;8.90;;;6.80;;
70683;SDS011;58263;48.146;11.440;2023-06-19T02:07:46;8.23;;;6.18;;
70683;SDS011;58263;48.146;11.440;2023-06-19T02:10:11;8.33;;;6.50;;
70683;SDS011;58263;48.146;11.440;2023-06-19T02:12:37;7.57;;;6.70;;
70683;SDS011;58263;48.146;11.440;2023-06-19T02:15:02;10.07;;;6.23;;
70683;SDS011;58263;48.146;11.440;2023-06-19T02:17:28;9.98;;;6.78;;
70683;SDS011;58263;48.146;11.440;2023-06-19T02:19:53;11.70;;;6.57;;
70683;SDS011;58263;48.146;11.440;2023-06-19T02:22:18;10.17;;;6.70;;
70683;SDS011;58263;48.146;11.440;2023-06-19T02:24:44;9.17;;;6.93;;
70683;SDS011;58263;48.146;11.440;2023-06-19T02:27:09;10.13;;;6.90;;
70683;SDS011;58263;48.146;11.440;2023-06-19T02:29:35;10.88;;;6.75;;
70683;SDS011;58263;48.146;11.440;2023-06-19T02:32:01;8.48;;;7.18;;
70683;SDS011;58263;48.146;11.440;2023-06-19T02:34:26;9.05;;;6.72;;
70683;SDS011;58263;48.146;11.440;2023-06-19T02:36:51;10.47;;;7.07;;
70683;SDS011;58263;48.146;11.440;2023-06-19T02:39:17;8.33;;;6.80;;
70683;SDS011;58263;48.146;11.440;2023-06-19T02:41:43;11.30;;;7.50;;
70683;SDS011;58263;48.146;11.440;2023-06-19T02:44:11;9.23;;;6.78;;
70683;SDS011;58263;48.146;11.440;2023-06-19T02:46:37;8.90;;;7.00;;
70683;SDS011;58263;48.146;11.440;2023-06-19T02:49:02;8.07;;;6.43;;
70683;SDS011;58263;48.146;11.440;2023-06-19T02:51:27;8.65;;;7.25;;
70683;SDS011;58263;48.146;11.440;2023-06-19T02:53:53;10.23;;;7.37;;
70683;SDS011;58263;48.146;11.440;2023-06-19T02:56:18;8.93;;;6.90;;
70683;SDS011;58263;48.146;11.440;2023-06-19T02:58:43;9.23;;;7.60;;
70683;SDS011;58263;48.146;11.440;2023-06-19T03:01:09;7.80;;;6.93;;
70683;SDS011;58263;48.146;11.440;2023-06-19T03:03:34;9.20;;;7.03;;
70683;SDS011;58263;48.146;11.440;2023-06-19T03:06:05;10.13;;;6.97;;
70683;SDS011;58263;48.146;11.440;2023-06-19T03:08:35;8.95;;;6.80;;
70683;SDS011;58263;48.146;11.440;2023-06-19T03:11:01;9.95;;;7.53;;
70683;SDS011;58263;48.146;11.440;2023-06-19T03:13:29;11.02;;;7.90;;
70683;SDS011;58263;48.146;11.440;2023-06-19T03:15:56;9.20;;;7.07;;
70683;SDS011;58263;48.146;11.440;2023-06-19T03:18:22;8.35;;;6.82;;
70683;SDS011;58263;48.146;11.440;2023-06-19T03:20:47;10.43;;;7.18;;
70683;SDS011;58263;48.146;11.440;2023-06-19T03:23:13;10.77;;;7.27;;
70683;SDS011;58263;48.146;11.440;2023-06-19T03:25:38;8.43;;;6.77;;
70683;SDS011;58263;48.146;11.440;2023-06-19T03:28:07;11.73;;;6.95;;
70683;SDS011;58263;48.146;11.440;2023-06-19T03:30:33;8.05;;;6.88;;
70683;SDS011;58263;48.146;11.440;2023-06-19T03:32:58;10.27;;;7.07;;
70683;SDS011;58263;48.146;11.440;2023-06-19T03:35:23;10.53;;;7.03;;
70683;SDS011;58263;48.146;11.440;2023-06-19T03:37:49;10.05;;;6.95;;
70683;SDS011;58263;48.146;11.440;2023-06-19T03:40:14;8.88;;;7.22;;
70683;SDS011;58263;48.146;11.440;2023-06-19T03:42:40;9.77;;;6.93;;
70683;SDS011;58263;48.146;11.440;2023-06-19T03:45:06;11.68;;;6.90;;
70683;SDS011;58263;48.146;11.440;2023-06-19T03:47:32;8.80;;;7.18;;
70683;SDS011;58263;48.146;11.440;2023-06-19T03:49:57;10.90;;;7.40;;
70683;SDS011;58263;48.146;11.440;2023-06-19T03:52:23;9.27;;;6.67;;
70683;SDS011;58263;48.146;11.440;2023-06-19T03:54:48;10.38;;;7.78;;
70683;SDS011;58263;48.146;11.440;2023-06-19T03:57:14;8.93;;;7.03;;
70683;SDS011;58263;48.146;11.440;2023-06-19T03:59:39;11.48;;;7.10;;
70683;SDS011;58263;48.146;11.440;2023-06-19T04:02:05;8.50;;;6.77;;
70683;SDS011;58263;48.146;11.440;2023-06-19T04:04:30;9.32;;;7.20;;
70683;SDS011;58263;48.146;11.440;2023-06-19T04:06:55;8.85;;;7.25;;
70683;SDS011;58263;48.146;11.440;2023-06-19T04:09:21;10.63;;;7.67;;
70683;SDS011;58263;48.146;11.440;2023-06-19T04:11:46;9.77;;;6.73;;
70683;SDS011;58263;48.146;11.440;2023-06-19T04:14:11;11.10;;;7.80;;
70683;SDS011;58263;48.146;11.440;2023-06-19T04:16:37;8.32;;;6.97;;
70683;SDS011;58263;48.146;11.440;2023-06-19T04:19:02;9.33;;;7.30;;
70683;SDS011;58263;48.146;11.440;2023-06-19T04:21:28;9.02;;;7.32;;
70683;SDS011;58263;48.146;11.440;2023-06-19T04:23:53;12.93;;;8.07;;
70683;SDS011;58263;48.146;11.440;2023-06-19T04:26:18;9.23;;;7.20;;
70683;SDS011;58263;48.146;11.440;2023-06-19T04:28:46;9.57;;;6.70;;
70683;SDS011;58263;48.146;11.440;2023-06-19T04:31:11;10.40;;;8.07;;
70683;SDS011;58263;48.146;11.440;2023-06-19T04:33:36;15.13;;;7.50;;
70683;SDS011;58263;48.146;11.440;2023-06-19T04:36:02;11.77;;;7.77;;
70683;SDS011;58263;48.146;11.440;2023-06-19T04:38:27;10.55;;;7.22;;
70683;SDS011;58263;48.146;11.440;2023-06-19T04:40:53;10.93;;;7.00;;
70683;SDS011;58263;48.146;11.440;2023-06-19T04:43:18;10.40;;;7.78;;
70683;SDS011;58263;48.146;11.440;2023-06-19T04:45:44;14.70;;;7.07;;
70683;SDS011;58263;48.146;11.440;2023-06-19T04:48:10;9.25;;;7.50;;
70683;SDS011;58263;48.146;11.440;2023-06-19T04:50:36;12.65;;;7.80;;
70683;SDS011;58263;48.146;11.440;2023-06-19T04:53:01;10.70;;;7.35;;
70683;SDS011;58263;48.146;11.440;2023-06-19T04:55:27;11.43;;;7.63;;
70683;SDS011;58263;48.146;11.440;2023-06-19T04:57:52;8.88;;;6.80;;
70683;SDS011;58263;48.146;11.440;2023-06-19T05:00:18;9.70;;;6.77;;
70683;SDS011;58263;48.146;11.440;2023-06-19T05:02:48;10.63;;;7.07;;
70683;SDS011;58263;48.146;11.440;2023-06-19T05:05:13;15.15;;;10.40;;
70683;SDS011;58263;48.146;11.440;2023-06-19T05:07:39;12.68;;;8.85;;
70683;SDS011;58263;48.146;11.440;2023-06-19T05:10:06;9.57;;;7.55;;
70683;SDS011;58263;48.146;11.440;2023-06-19T05:12:33;9.77;;;7.60;;
70683;SDS011;58263;48.146;11.440;2023-06-19T05:14:59;10.07;;;6.90;;
70683;SDS011;58263;48.146;11.440;2023-06-19T05:17:25;10.02;;;7.30;;
70683;SDS011;58263;48.146;11.440;2023-06-19T05:19:50;11.37;;;7.73;;
70683;SDS011;58263;48.146;11.440;2023-06-19T05:22:15;12.13;;;8.57;;
70683;SDS011;58263;48.146;11.440;2023-06-19T05:24:43;9.35;;;7.35;;
70683;SDS011;58263;48.146;11.440;2023-06-19T05:27:08;9.80;;;6.97;;
70683;SDS011;58263;48.146;11.440;2023-06-19T05:29:33;9.30;;;6.88;;
70683;SDS011;58263;48.146;11.440;2023-06-19T05:31:59;11.37;;;6.60;;
70683;SDS011;58263;48.146;11.440;2023-06-19T05:34:24;9.57;;;6.23;;
70683;SDS011;58263;48.146;11.440;2023-06-19T05:36:49;26.90;;;16.43;;
70683;SDS011;58263;48.146;11.440;2023-06-19T05:39:15;13.67;;;9.07;;
70683;SDS011;58263;48.146;11.440;2023-06-19T05:41:40;9.60;;;6.33;;
70683;SDS011;58263;48.146;11.440;2023-06-19T05:44:05;9.25;;;6.00;;
70683;SDS011;58263;48.146;11.440;2023-06-19T05:46:31;7.75;;;6.10;;
70683;SDS011;58263;48.146;11.440;2023-06-19T05:48:56;11.77;;;5.80;;
70683;SDS011;58263;48.146;11.440;2023-06-19T05:51:21;9.82;;;6.05;;
70683;SDS011;58263;48.146;11.440;2023-06-19T05:53:47;8.00;;;5.53;;
70683;SDS011;58263;48.146;11.440;2023-06-19T05:56:14;6.60;;;5.43;;
70683;SDS011;58263;48.146;11.440;2023-06-19T05:58:39;6.28;;;5.10;;
70683;SDS011;58263;48.146;11.440;2023-06-19T06:01:05;6.68;;;5.30;;
70683;SDS011;58263;48.146;11.440;2023-06-19T06:03:31;7.57;;;5.68;;
70683;SDS011;58263;48.146;11.440;2023-06-19T06:05:57;6.47;;;5.17;;
70683;SDS011;58263;48.146;11.440;2023-06-19T06:08:28;14.48;;;6.35;;
70683;SDS011;58263;48.146;11.440;2023-06-19T06:10:56;7.97;;;6.32;;
70683;SDS011;58263;48.146;11.440;2023-06-19T06:13:22;9.32;;;5.95;;
70683;SDS011;58263;48.146;11.440;2023-06-19T06:15:47;10.13;;;5.82;;
70683;SDS011;58263;48.146;11.440;2023-06-19T06:18:13;9.00;;;5.80;;
70683;SDS011;58263;48.146;11.440;2023-06-19T06:20:38;9.32;;;5.50;;
70683;SDS011;58263;48.146;11.440;2023-06-19T06:23:04;8.23;;;5.20;;
70683;SDS011;58263;48.146;11.440;2023-06-19T06:25:29;8.35;;;5.30;;
70683;SDS011;58263;48.146;11.440;2023-06-19T06:27:55;9.18;;;5.65;;
70683;SDS011;58263;48.146;11.440;2023-06-19T06:30:20;6.43;;;5.47;;
70683;SDS011;58263;48.146;11.440;2023-06-19T06:32:46;8.55;;;5.00;;
70683;SDS011;58263;48.146;11.440;2023-06-19T06:35:11;7.23;;;5.20;;
70683;SDS011;58263;48.146;11.440;2023-06-19T06:37:36;7.20;;;5.70;;
70683;SDS011;58263;48.146;11.440;2023-06-19T06:40:02;8.73;;;5.23;;
70683;SDS011;58263;48.146;11.440;2023-06-19T06:42:30;6.72;;;5.78;;
70683;SDS011;58263;48.146;11.440;2023-06-19T06:44:55;6.03;;;5.03;;
70683;SDS011;58263;48.146;11.440;2023-06-19T06:47:20;7.63;;;5.40;;
70683;SDS011;58263;48.146;11.440;2023-06-19T06:49:46;6.87;;;5.23;;
70683;SDS011;58263;48.146;11.440;2023-06-19T06:52:11;7.03;;;5.33;;
70683;SDS011;58263;48.146;11.440;2023-06-19T06:54:36;7.00;;;5.70;;
70683;SDS011;58263;48.146;11.440;2023-06-19T06:57:02;11.20;;;6.63;;
70683;SDS011;58263;48.146;11.440;2023-06-19T06:59:27;9.20;;;6.93;;
70683;SDS011;58263;48.146;11.440;2023-06-19T07:01:53;8.87;;;6.43;;
70683;SDS011;58263;48.146;11.440;2023-06-19T07:04:19;7.90;;;5.68;;
70683;SDS011;58263;48.146;11.440;2023-06-19T07:06:45;5.30;;;4.80;;
70683;SDS011;58263;48.146;11.440;2023-06-19T07:09:11;6.22;;;5.07;;
70683;SDS011;58263;48.146;11.440;2023-06-19T07:11:36;5.88;;;5.28;;
70683;SDS011;58263;48.146;11.440;2023-06-19T07:14:02;8.60;;;5.10;;
70683;SDS011;58263;48.146;11.440;2023-06-19T07:16:27;6.18;;;5.05;;
70683;SDS011;58263;48.146;11.440;2023-06-19T07:18:53;7.13;;;4.95;;
70683;SDS011;58263;48.146;11.440;2023-06-19T07:21:18;6.22;;;5.63;;
70683;SDS011;58263;48.146;11.440;2023-06-19T07:23:44;8.38;;;5.20;;
70683;SDS011;58263;48.146;11.440;2023-06-19T07:26:10;6.53;;;4.75;;
70683;SDS011;58263;48.146;11.440;2023-06-19T07:28:35;9.53;;;4.67;;
70683;SDS011;58263;48.146;11.440;2023-06-19T07:31:01;5.88;;;4.70;;
70683;SDS011;58263;48.146;11.440;2023-06-19T07:33:27;7.00;;;4.97;;
70683;SDS011;58263;48.146;11.440;2023-06-19T07:35:53;4.85;;;4.20;;
70683;SDS011;58263;48.146;11.440;2023-06-19T07:38:18;7.83;;;4.43;;
70683;SDS011;58263;48.146;11.440;2023-06-19T07:40:44;5.75;;;4.38;;
70683;SDS011;58263;48.146;11.440;2023-06-19T07:43:09;5.03;;;3.85;;
70683;SDS011;58263;48.146;11.440;2023-06-19T07:45:35;9.00;;;4.20;;
70683;SDS011;58263;48.146;11.440;2023-06-19T07:48:00;5.27;;;4.20;;
70683;SDS011;58263;48.146;11.440;2023-06-19T07:50:25;5.20;;;4.47;;
70683;SDS011;58263;48.146;11.440;2023-06-19T07:52:51;5.90;;;4.30;;
70683;SDS011;58263;48.146;11.440;2023-06-19T07:55:16;4.70;;;4.23;;
70683;SDS011;58263;48.146;11.440;2023-06-19T07:57:41;6.72;;;4.50;;
70683;SDS011;58263;48.146;11.440;2023-06-19T08:00:07;5.60;;;4.53;;
70683;SDS011;58263;48.146;11.440;2023-06-19T08:02:36;5.70;;;4.07;;
70683;SDS011;58263;48.146;11.440;2023-06-19T08:05:02;5.57;;;4.40;;
70683;SDS011;58263;48.146;11.440;2023-06-19T08:07:27;4.78;;;4.28;;
70683;SDS011;58263;48.146;11.440;2023-06-19T08:09:53;6.25;;;4.88;;
70683;SDS011;58263;48.146;11.440;2023-06-19T08:12:18;6.77;;;4.70;;
70683;SDS011;58263;48.146;11.440;2023-06-19T08:14:44;8.10;;;4.53;;
70683;SDS011;58263;48.146;11.440;2023-06-19T08:17:09;5.35;;;4.60;;
70683;SDS011;58263;48.146;11.440;2023-06-19T08:19:34;5.00;;;4.50;;
70683;SDS011;58263;48.146;11.440;2023-06-19T08:22:00;4.85;;;3.97;;
70683;SDS011;58263;48.146;11.440;2023-06-19T08:24:25;5.47;;;4.63;;
70683;SDS011;58263;48.146;11.440;2023-06-19T08:26:50;7.47;;;4.70;;
70683;SDS011;58263;48.146;11.440;2023-06-19T08:29:17;5.10;;;4.40;;
70683;SDS011;58263;48.146;11.440;2023-06-19T08:31:43;5.40;;;4.47;;
70683;SDS011;58263;48.146;11.440;2023-06-19T08:34:08;7.88;;;4.40;;
70683;SDS011;58263;48.146;11.440;2023-06-19T08:36:35;4.65;;;4.20;;
70683;SDS011;58263;48.146;11.440;2023-06-19T08:39:00;5.18;;;3.85;;
70683;SDS011;58263;48.146;11.440;2023-06-19T08:41:26;3.53;;;3.00;;
70683;SDS011;58263;48.146;11.440;2023-06-19T08:43:52;4.35;;;3.40;;
70683;SDS011;58263;48.146;11.440;2023-06-19T08:46:18;4.07;;;2.88;;
70683;SDS011;58263;48.146;11.440;2023-06-19T08:48:44;3.58;;;3.25;;
70683;SDS011;58263;48.146;11.440;2023-06-19T08:51:10;3.55;;;3.10;;
70683;SDS011;58263;48.146;11.440;2023-06-19T08:53:46;7.35;;;3.35;;
70683;SDS011;58263;48.146;11.440;2023-06-19T08:56:16;3.60;;;3.30;;
70683;SDS011;58263;48.146;11.440;2023-06-19T08:58:41;3.85;;;3.45;;
70683;SDS011;58263;48.146;11.440;2023-06-19T09:01:07;3.20;;;2.90;;
70683;SDS011;58263;48.146;11.440;2023-06-19T09:03:32;3.65;;;3.35;;
70683;SDS011;58263;48.146;11.440;2023-06-19T09:06:02;3.60;;;3.30;;
70683;SDS011;58263;48.146;11.440;2023-06-19T09:08:34;4.18;;;3.63;;
70683;SDS011;58263;48.146;11.440;2023-06-19T09:11:00;4.22;;;3.35;;
70683;SDS011;58263;48.146;11.440;2023-06-19T09:13:27;4.82;;;4.00;;
70683;SDS011;58263;48.146;11.440;2023-06-19T09:16:07;3.95;;;3.65;;
70683;SDS011;58263;48.146;11.440;2023-06-19T09:18:43;5.22;;;4.07;;
70683;SDS011;58263;48.146;11.440;2023-06-19T09:21:16;4.60;;;3.97;;
70683;SDS011;58263;48.146;11.440;2023-06-19T09:23:48;4.93;;;4.22;;
70683;SDS011;58263;48.146;11.440;2023-06-19T09:26:16;6.43;;;4.55;;
70683;SDS011;58263;48.146;11.440;2023-06-19T09:28:44;4.22;;;3.83;;
70683;SDS011;58263;48.146;11.440;2023-06-19T09:31:10;5.15;;;4.03;;
70683;SDS011;58263;48.146;11.440;2023-06-19T09:33:36;5.47;;;3.97;;
70683;SDS011;58263;48.146;11.440;2023-06-19T09:36:03;5.55;;;3.95;;
70683;SDS011;58263;48.146;11.440;2023-06-19T09:38:30;5.00;;;4.18;;
70683;SDS011;58263;48.146;11.440;2023-06-19T09:40:57;5.28;;;3.83;;
70683;SDS011;58263;48.146;11.440;2023-06-19T09:43:29;5.95;;;3.90;;
70683;SDS011;58263;48.146;11.440;2023-06-19T09:45:58;5.82;;;4.32;;
70683;SDS011;58263;48.146;11.440;2023-06-19T09:48:28;4.40;;;3.90;;
70683;SDS011;58263;48.146;11.440;2023-06-19T09:50:59;7.15;;;4.10;;
70683;SDS011;58263;48.146;11.440;2023-06-19T09:55:55;4.35;;;3.95;;
70683;SDS011;58263;48.146;11.440;2023-06-19T09:58:21;4.07;;;3.65;;
70683;SDS011;58263;48.146;11.440;2023-06-19T10:00:47;5.38;;;3.90;;
70683;SDS011;58263;48.146;11.440;2023-06-19T10:03:14;4.72;;;3.70;;
70683;SDS011;58263;48.146;11.440;2023-06-19T10:05:41;3.85;;;3.50;;
70683;SDS011;58263;48.146;11.440;2023-06-19T10:08:07;4.00;;;3.60;;
70683;SDS011;58263;48.146;11.440;2023-06-19T10:10:33;3.85;;;3.50;;
70683;SDS011;58263;48.146;11.440;2023-06-19T10:12:59;4.35;;;3.67;;
70683;SDS011;58263;48.146;11.440;2023-06-19T10:15:45;6.25;;;3.20;;
70683;SDS011;58263;48.146;11.440;2023-06-19T10:18:13;4.05;;;3.45;;
70683;SDS011;58263;48.146;11.440;2023-06-19T10:20:43;3.95;;;3.33;;
70683;SDS011;58263;48.146;11.440;2023-06-19T10:23:12;4.65;;;3.03;;
70683;SDS011;58263;48.146;11.440;2023-06-19T10:25:42;3.78;;;3.35;;
70683;SDS011;58263;48.146;11.440;2023-06-19T10:31:09;4.65;;;2.88;;
70683;SDS011;58263;48.146;11.440;2023-06-19T10:33:36;3.70;;;2.63;;
70683;SDS011;58263;48.146;11.440;2023-06-19T10:36:21;3.33;;;2.63;;
70683;SDS011;58263;48.146;11.440;2023-06-19T10:38:48;3.63;;;3.33;;
70683;SDS011;58263;48.146;11.440;2023-06-19T10:41:21;3.35;;;2.70;;
70683;SDS011;58263;48.146;11.440;2023-06-19T10:46:24;3.65;;;3.35;;
70683;SDS011;58263;48.146;11.440;2023-06-19T10:48:55;3.17;;;2.97;;
70683;SDS011;58263;48.146;11.440;2023-06-19T10:51:25;5.55;;;3.60;;
70683;SDS011;58263;48.146;11.440;2023-06-19T10:53:53;3.88;;;3.50;;
70683;SDS011;58263;48.146;11.440;2023-06-19T10:56:20;3.97;;;3.28;;
70683;SDS011;58263;48.146;11.440;2023-06-19T10:58:46;3.40;;;3.10;;
70683;SDS011;58263;48.146;11.440;2023-06-19T11:01:11;4.87;;;2.93;;
70683;SDS011;58263;48.146;11.440;2023-06-19T11:03:36;3.40;;;2.90;;
70683;SDS011;58263;48.146;11.440;2023-06-19T11:06:02;3.20;;;3.00;;
70683;SDS011;58263;48.146;11.440;2023-06-19T11:08:27;5.33;;;3.50;;
70683;SDS011;58263;48.146;11.440;2023-06-19T11:10:53;5.90;;;3.33;;
70683;SDS011;58263;48.146;11.440;2023-06-19T11:13:20;3.40;;;3.10;;
70683;SDS011;58263;48.146;11.440;2023-06-19T11:15:49;3.40;;;3.15;;
70683;SDS011;58263;48.146;11.440;2023-06-19T11:18:15;10.90;;;4.03;;
70683;SDS011;58263;48.146;11.440;2023-06-19T11:20:45;4.47;;;4.07;;
70683;SDS011;58263;48.146;11.440;2023-06-19T11:23:12;4.50;;;3.95;;
70683;SDS011;58263;48.146;11.440;2023-06-19T11:25:39;3.25;;;3.05;;
70683;SDS011;58263;48.146;11.440;2023-06-19T11:28:12;4.50;;;4.10;;
70683;SDS011;58263;48.146;11.440;2023-06-19T11:30:39;3.88;;;3.55;;
70683;SDS011;58263;48.146;11.440;2023-06-19T11:33:17;4.80;;;4.35;;
70683;SDS011;58263;48.146;11.440;2023-06-19T11:35:47;3.67;;;3.47;;
70683;SDS011;58263;48.146;11.440;2023-06-19T11:38:17;3.78;;;3.58;;
70683;SDS011;58263;48.146;11.440;2023-06-19T11:40:43;4.20;;;3.90;;
70683;SDS011;58263;48.146;11.440;2023-06-19T11:43:10;9.20;;;5.97;;
70683;SDS011;58263;48.146;11.440;2023-06-19T11:45:45;6.70;;;4.22;;
70683;SDS011;58263;48.146;11.440;2023-06-19T11:48:20;4.43;;;4.18;;
70683;SDS011;58263;48.146;11.440;2023-06-19T11:50:46;4.65;;;4.25;;
70683;SDS011;58263;48.146;11.440;2023-06-19T11:53:12;7.45;;;5.78;;
70683;SDS011;58263;48.146;11.440;2023-06-19T11:55:38;4.82;;;4.25;;
70683;SDS011;58263;48.146;11.440;2023-06-19T11:58:03;4.97;;;4.63;;
70683;SDS011;58263;48.146;11.440;2023-06-19T12:00:28;3.28;;;3.17;;
70683;SDS011;58263;48.146;11.440;2023-06-19T12:02:54;4.53;;;4.32;;
70683;SDS011;58263;48.146;11.440;2023-06-19T12:05:22;6.47;;;4.88;;
70683;SDS011;58263;48.146;11.440;2023-06-19T12:07:47;3.63;;;3.33;;
70683;SDS011;58263;48.146;11.440;2023-06-19T12:10:12;4.00;;;3.80;;
70683;SDS011;58263;48.146;11.440;2023-06-19T12:12:37;4.80;;;4.50;;
70683;SDS011;58263;48.146;11.440;2023-06-19T12:15:04;4.40;;;4.00;;
70683;SDS011;58263;48.146;11.440;2023-06-19T12:17:30;4.47;;;4.18;;
70683;SDS011;58263;48.146;11.440;2023-06-19T12:19:58;4.13;;;3.92;;
70683;SDS011;58263;48.146;11.440;2023-06-19T12:22:27;4.13;;;3.83;;
70683;SDS011;58263;48.146;11.440;2023-06-19T12:24:53;3.20;;;2.90;;
70683;SDS011;58263;48.146;11.440;2023-06-19T12:27:18;4.03;;;3.73;;
70683;SDS011;58263;48.146;11.440;2023-06-19T12:29:43;3.67;;;3.47;;
70683;SDS011;58263;48.146;11.440;2023-06-19T12:32:08;4.10;;;3.70;;
70683;SDS011;58263;48.146;11.440;2023-06-19T12:34:34;4.13;;;3.67;;
70683;SDS011;58263;48.146;11.440;2023-06-19T12:36:59;3.67;;;3.30;;
70683;SDS011;58263;48.146;11.440;2023-06-19T12:39:24;3.13;;;2.92;;
70683;SDS011;58263;48.146;11.440;2023-06-19T12:41:51;3.60;;;3.35;;
70683;SDS011;58263;48.146;11.440;2023-06-19T12:44:16;3.75;;;3.45;;
70683;SDS011;58263;48.146;11.440;2023-06-19T12:46:42;3.63;;;3.08;;
70683;SDS011;58263;48.146;11.440;2023-06-19T12:49:07;3.13;;;2.92;;
70683;SDS011;58263;48.146;11.440;2023-06-19T12:51:33;5.07;;;3.10;;
70683;SDS011;58263;48.146;11.440;2023-06-19T12:53:59;5.00;;;3.20;;
70683;SDS011;58263;48.146;11.440;2023-06-19T12:56:24;3.13;;;2.90;;
70683;SDS011;58263;48.146;11.440;2023-06-19T12:58:49;3.45;;;3.05;;
70683;SDS011;58263;48.146;11.440;2023-06-19T13:01:15;3.63;;;3.43;;
70683;SDS011;58263;48.146;11.440;2023-06-19T13:03:40;3.50;;;3.30;;
70683;SDS011;58263;48.146;11.440;2023-06-19T13:06:05;3.57;;;3.27;;
70683;SDS011;58263;48.146;11.440;2023-06-19T13:08:33;3.80;;;3.50;;
70683;SDS011;58263;48.146;11.440;2023-06-19T13:10:59;3.90;;;3.70;;
70683;SDS011;58263;48.146;11.440;2023-06-19T13:13:24;3.53;;;3.33;;
70683;SDS011;58263;48.146;11.440;2023-06-19T13:15:49;3.73;;;3.43;;
70683;SDS011;58263;48.146;11.440;2023-06-19T13:18:15;3.25;;;3.05;;
70683;SDS011;58263;48.146;11.440;2023-06-19T13:20:40;5.40;;;3.63;;
70683;SDS011;58263;48.146;11.440;2023-06-19T13:23:05;3.47;;;3.27;;
70683;SDS011;58263;48.146;11.440;2023-06-19T13:25:31;3.42;;;3.22;;
70683;SDS011;58263;48.146;11.440;2023-06-19T13:27:57;3.33;;;3.03;;
70683;SDS011;58263;48.146;11.440;2023-06-19T13:30:22;2.90;;;2.70;;
70683;SDS011;58263;48.146;11.440;2023-06-19T13:32:48;2.80;;;2.60;;
70683;SDS011;58263;48.146;11.440;2023-06-19T13:35:13;3.30;;;3.00;;
70683;SDS011;58263;48.146;11.440;2023-06-19T13:37:39;3.22;;;2.92;;
70683;SDS011;58263;48.146;11.440;2023-06-19T13:40:05;13.00;;;10.35;;
70683;SDS011;58263;48.146;11.440;2023-06-19T13:42:32;6.40;;;5.68;;
70683;SDS011;58263;48.146;11.440;2023-06-19T13:45:00;3.13;;;2.83;;
70683;SDS011;58263;48.146;11.440;2023-06-19T13:47:26;3.10;;;2.60;;
70683;SDS011;58263;48.146;11.440;2023-06-19T13:49:52;3.33;;;3.03;;
70683;SDS011;58263;48.146;11.440;2023-06-19T13:52:18;3.20;;;2.88;;
70683;SDS011;58263;48.146;11.440;2023-06-19T13:54:43;5.18;;;3.40;;
70683;SDS011;58263;48.146;11.440;2023-06-19T13:57:08;3.43;;;3.13;;
70683;SDS011;58263;48.146;11.440;2023-06-19T13:59:34;3.00;;;2.80;;
70683;SDS011;58263;48.146;11.440;2023-06-19T14:01:59;4.82;;;3.10;;
70683;SDS011;58263;48.146;11.440;2023-06-19T14:04:24;3.20;;;3.00;;
70683;SDS011;58263;48.146;11.440;2023-06-19T14:06:50;2.80;;;2.60;;
70683;SDS011;58263;48.146;11.440;2023-06-19T14:09:15;5.47;;;3.00;;
70683;SDS011;58263;48.146;11.440;2023-06-19T14:11:40;3.83;;;3.07;;
70683;SDS011;58263;48.146;11.440;2023-06-19T14:14:06;3.47;;;2.90;;
70683;SDS011;58263;48.146;11.440;2023-06-19T14:16:32;3.92;;;3.47;;
70683;SDS011;58263;48.146;11.440;2023-06-19T14:18:57;5.73;;;3.13;;
70683;SDS011;58263;48.146;11.440;2023-06-19T14:21:23;3.17;;;2.87;;
70683;SDS011;58263;48.146;11.440;2023-06-19T14:23:48;3.00;;;2.80;;
70683;SDS011;58263;48.146;11.440;2023-06-19T14:26:13;4.95;;;3.20;;
70683;SDS011;58263;48.146;11.440;2023-06-19T14:28:39;3.20;;;2.90;;
70683;SDS011;58263;48.146;11.440;2023-06-19T14:31:04;3.80;;;3.10;;
70683;SDS011;58263;48.146;11.440;2023-06-19T14:33:30;3.53;;;3.05;;
70683;SDS011;58263;48.146;11.440;2023-06-19T14:35:57;2.90;;;2.70;;